Time;durP1;ratioP1;P1;durP2;ratioP2;P2;SDS_P1;SDS_P2;PMS_P1;PMS_P2;Temp;Humidity;BMP_temperature;BMP_pressure;BME280_temperature;BME280_humidity;BME280_pressure;Samples;Min_cycle;Max_cycle;Signal;HPM_P1;HPM_P2
2023/07/14 00:01:33;;;;;;;;;;;19.80;99.90;;;;;;5072522;28;19956;-68
2023/07/14 00:04:00;;;;;;;;;;;20.10;99.90;;;;;;5072862;28;19963;-71
2023/07/14 00:06:26;;;;;;;;;;;20.90;99.90;;;;;;5072639;28;19965;-68
2023/07/14 00:08:53;;;;;;;;;;;20.60;99.90;;;;;;5072265;28;25061;-68
2023/07/14 00:11:21;;;;;;;;;;;20.50;99.90;;;;;;5072527;28;20330;-68
2023/07/14 00:13:49;;;;;;;;;;;21.00;99.90;;;;;;5072598;28;20380;-68
2023/07/14 00:16:20;;;;;;;;;;;20.40;99.90;;;;;;5072555;28;20384;-70
2023/07/14 00:18:46;;;;;;;;;;;20.50;99.90;;;;;;5072874;28;24132;-72
2023/07/14 00:21:23;;;;;;;;;;;20.20;99.90;;;;;;5072617;28;20007;-70
2023/07/14 00:23:50;;;;;;;;;;;20.10;99.90;;;;;;5072603;28;24071;-71
2023/07/14 00:26:19;;;;;;;;;;;20.50;99.90;;;;;;5072899;28;24052;-68
2023/07/14 00:28:49;;;;;;;;;;;19.70;99.90;;;;;;5072508;28;24077;-70
2023/07/14 00:31:17;;;;;;;;;;;19.60;99.90;;;;;;5072978;28;19925;-68
2023/07/14 00:33:44;;;;;;;;;;;19.60;99.90;;;;;;5072706;28;19961;-71
2023/07/14 00:36:12;;;;;;;;;;;20.00;99.90;;;;;;5072490;28;24059;-68
2023/07/14 00:38:38;;;;;;;;;;;20.30;99.90;;;;;;5072400;28;19911;-68
2023/07/14 00:41:09;;;;;;;;;;;20.20;99.90;;;;;;5072467;28;25112;-69
2023/07/14 00:43:36;;;;;;;;;;;19.60;99.90;;;;;;5072517;28;19904;-67
2023/07/14 00:46:04;;;;;;;;;;;20.30;99.90;;;;;;5076464;28;19999;-68
2023/07/14 00:48:31;;;;;;;;;;;20.50;99.90;;;;;;5078740;28;25151;-68
2023/07/14 00:50:57;;;;;;;;;;;20.80;99.90;;;;;;5078872;28;24091;-68
2023/07/14 00:53:27;;;;;;;;;;;21.20;99.90;;;;;;5079027;28;19956;-69
2023/07/14 00:55:57;;;;;;;;;;;21.40;99.90;;;;;;5078955;28;20050;-68
2023/07/14 01:01:28;;;;;;;;;;;21.40;99.90;;;;;;5079501;28;24083;-68
2023/07/14 01:03:59;;;;;;;;;;;21.50;99.90;;;;;;5079676;28;19905;-72
2023/07/14 01:06:33;;;;;;;;;;;21.70;99.90;;;;;;5079301;28;24085;-68
2023/07/14 01:09:06;;;;;;;;;;;21.90;99.90;;;;;;5078577;28;19963;-69
2023/07/14 01:11:35;;;;;;;;;;;22.40;99.10;;;;;;5078990;28;19956;-68
2023/07/14 01:14:04;;;;;;;;;;;22.50;97.00;;;;;;5079019;28;19970;-68
2023/07/14 01:16:32;;;;;;;;;;;21.90;97.50;;;;;;5078807;28;19967;-70
2023/07/14 01:18:59;;;;;;;;;;;21.80;98.30;;;;;;5078613;28;20054;-69
2023/07/14 01:21:25;;;;;;;;;;;22.50;99.90;;;;;;5078939;28;25058;-69
2023/07/14 01:24:13;;;;;;;;;;;22.50;96.40;;;;;;5078840;28;25071;-70
2023/07/14 01:26:50;;;;;;;;;;;22.90;93.20;;;;;;5078775;28;25080;-69
2023/07/14 01:29:18;;;;;;;;;;;23.20;93.00;;;;;;5078013;28;19976;-69
2023/07/14 01:31:47;;;;;;;;;;;;;;;;;;5079077;28;20333;-70
2023/07/14 01:34:14;;;;;;;;;;;;;;;;;;5078869;28;19964;-68
2023/07/14 01:36:40;;;;;;;;;;;23.70;99.90;;;;;;5078300;28;25057;-69
2023/07/14 01:39:08;;;;;;;;;;;24.00;96.60;;;;;;5079039;28;20126;-68
2023/07/14 01:41:35;;;;;;;;;;;24.40;94.00;;;;;;5077053;28;20324;-69
2023/07/14 01:44:03;;;;;;;;;;;23.90;90.30;;;;;;5078515;28;19967;-68
2023/07/14 01:46:30;;;;;;;;;;;24.00;91.00;;;;;;5078607;28;19999;-68
2023/07/14 01:48:57;;;;;;;;;;;23.70;92.20;;;;;;5078113;28;25098;-68
2023/07/14 01:51:24;;;;;;;;;;;24.40;90.40;;;;;;5077059;28;20094;-67
2023/07/14 01:53:54;;;;;;;;;;;24.50;90.00;;;;;;5078055;28;20104;-67
2023/07/14 01:56:20;;;;;;;;;;;;;;;;;;5078154;28;19971;-69
2023/07/14 01:59:13;;;;;;;;;;;24.60;86.50;;;;;;5074959;28;20568;-67
2023/07/14 02:01:41;;;;;;;;;;;24.60;91.00;;;;;;5073852;28;20495;-68
2023/07/14 02:04:10;;;;;;;;;;;25.30;86.60;;;;;;5074493;28;20188;-68
2023/07/14 02:06:37;;;;;;;;;;;25.10;80.50;;;;;;5075139;28;20445;-68
2023/07/14 02:09:08;;;;;;;;;;;24.80;86.30;;;;;;5074614;28;19972;-69
2023/07/14 02:11:35;;;;;;;;;;;24.70;83.20;;;;;;5073519;28;19974;-67
2023/07/14 02:14:02;;;;;;;;;;;24.80;79.50;;;;;;5074483;28;20087;-69
2023/07/14 02:16:29;;;;;;;;;;;25.00;76.90;;;;;;5074407;28;20028;-68
2023/07/14 02:18:56;;;;;;;;;;;25.20;76.00;;;;;;5074207;28;20525;-69
2023/07/14 02:21:26;;;;;;;;;;;25.80;72.80;;;;;;5073851;28;20229;-68
2023/07/14 02:23:52;;;;;;;;;;;26.00;69.50;;;;;;5074538;28;20646;-68
2023/07/14 02:26:25;;;;;;;;;;;26.10;66.00;;;;;;5074683;28;20139;-69
2023/07/14 02:28:52;;;;;;;;;;;26.30;64.70;;;;;;5074466;28;20170;-69
2023/07/14 02:31:24;;;;;;;;;;;26.20;54.60;;;;;;5074243;28;20178;-71
2023/07/14 02:33:51;;;;;;;;;;;25.80;51.60;;;;;;5074193;28;20162;-69
2023/07/14 02:36:21;;;;;;;;;;;25.50;51.30;;;;;;5074490;28;20137;-71
2023/07/14 02:38:47;;;;;;;;;;;25.70;51.50;;;;;;5073956;28;20173;-69
2023/07/14 02:41:18;;;;;;;;;;;26.00;51.40;;;;;;5073655;28;25059;-69
2023/07/14 02:43:47;;;;;;;;;;;25.90;51.20;;;;;;5073072;28;20274;-68
2023/07/14 02:46:37;;;;;;;;;;;26.30;47.80;;;;;;5074013;28;20521;-69
2023/07/14 02:49:04;;;;;;;;;;;26.00;43.20;;;;;;5073854;28;20289;-67
2023/07/14 02:51:31;;;;;;;;;;;25.80;44.90;;;;;;5073548;28;20663;-69
2023/07/14 02:53:58;;;;;;;;;;;25.90;45.80;;;;;;5074216;28;20144;-68
2023/07/14 02:56:24;;;;;;;;;;;25.70;44.50;;;;;;5073824;28;20201;-68
2023/07/14 02:58:52;;;;;;;;;;;25.70;44.20;;;;;;5073934;28;20143;-68
2023/07/14 03:01:19;;;;;;;;;;;25.70;42.80;;;;;;5073484;28;20284;-67
2023/07/14 03:03:46;;;;;;;;;;;26.00;43.80;;;;;;5072327;28;20156;-67
2023/07/14 03:06:15;;;;;;;;;;;26.20;42.50;;;;;;5073612;28;20164;-67
2023/07/14 03:08:41;;;;;;;;;;;26.30;43.90;;;;;;5073400;28;20646;-68
2023/07/14 03:11:08;;;;;;;;;;;26.20;42.00;;;;;;5073091;28;20217;-67
2023/07/14 03:13:35;;;;;;;;;;;26.00;39.20;;;;;;5073223;28;20136;-67
2023/07/14 03:16:03;;;;;;;;;;;26.00;40.70;;;;;;5073775;28;20194;-67
2023/07/14 03:18:30;;;;;;;;;;;25.90;40.40;;;;;;5072220;28;20258;-67
2023/07/14 03:20:57;;;;;;;;;;;26.00;40.30;;;;;;5073379;28;20199;-68
2023/07/14 03:23:24;;;;;;;;;;;26.20;38.70;;;;;;5073075;28;20181;-67
2023/07/14 03:25:55;;;;;;;;;;;25.80;38.50;;;;;;5073579;28;20220;-68
2023/07/14 03:28:22;;;;;;;;;;;26.10;39.20;;;;;;5072648;28;25080;-67
2023/07/14 03:30:49;;;;;;;;;;;26.00;39.00;;;;;;5072888;28;20152;-67
2023/07/14 03:33:15;;;;;;;;;;;26.10;36.70;;;;;;5072976;28;20206;-71
2023/07/14 03:35:42;;;;;;;;;;;25.70;33.90;;;;;;5071558;28;19983;-69
2023/07/14 03:38:09;;;;;;;;;;;25.40;34.40;;;;;;5072939;28;20253;-68
2023/07/14 03:40:35;;;;;;;;;;;25.60;35.00;;;;;;5073207;28;19973;-68
2023/07/14 03:43:05;;;;;;;;;;;25.30;34.60;;;;;;5072731;28;20233;-69
2023/07/14 03:45:32;;;;;;;;;;;25.30;32.60;;;;;;5072982;28;19977;-68
2023/07/14 03:47:59;;;;;;;;;;;25.40;31.30;;;;;;5072569;28;20148;-69
2023/07/14 03:50:26;;;;;;;;;;;25.40;30.50;;;;;;5072688;28;20072;-71
2023/07/14 03:52:53;;;;;;;;;;;25.10;30.50;;;;;;5072524;28;19971;-68
2023/07/14 03:55:19;;;;;;;;;;;25.20;29.60;;;;;;5072718;28;20085;-68
2023/07/14 03:57:46;;;;;;;;;;;25.00;29.50;;;;;;5072208;28;20520;-68
2023/07/14 04:03:16;;;;;;;;;;;25.70;31.30;;;;;;5071932;28;20392;-70
2023/07/14 04:05:46;;;;;;;;;;;25.80;28.40;;;;;;5072671;28;20679;-68
2023/07/14 04:08:13;;;;;;;;;;;25.60;28.20;;;;;;5072388;28;20131;-69
2023/07/14 04:10:40;;;;;;;;;;;25.50;28.00;;;;;;5072490;28;20167;-68
2023/07/14 04:13:06;;;;;;;;;;;25.30;28.30;;;;;;5071969;28;20497;-68
2023/07/14 04:15:33;;;;;;;;;;;24.80;27.90;;;;;;5071416;28;19978;-68
2023/07/14 04:18:00;;;;;;;;;;;24.70;28.60;;;;;;5070828;28;19974;-68
2023/07/14 04:20:26;;;;;;;;;;;24.90;29.20;;;;;;5069661;28;20169;-71
2023/07/14 04:22:53;;;;;;;;;;;24.90;29.30;;;;;;5071573;28;20024;-68
2023/07/14 04:25:20;;;;;;;;;;;25.10;29.20;;;;;;5072259;28;20526;-69
2023/07/14 04:27:47;;;;;;;;;;;25.20;29.80;;;;;;5071744;28;20285;-69
2023/07/14 04:30:13;;;;;;;;;;;25.40;30.50;;;;;;5072130;28;20129;-68
2023/07/14 04:32:42;;;;;;;;;;;25.40;28.50;;;;;;5072339;28;20104;-68
2023/07/14 04:35:09;;;;;;;;;;;25.20;29.00;;;;;;5071899;28;20608;-68
2023/07/14 04:37:35;;;;;;;;;;;25.00;28.00;;;;;;5071925;28;20449;-69
2023/07/14 04:40:04;;;;;;;;;;;24.80;28.60;;;;;;5072089;28;20096;-69
2023/07/14 04:42:31;;;;;;;;;;;24.70;29.30;;;;;;5072189;28;19970;-69
2023/07/14 04:44:57;;;;;;;;;;;24.50;29.20;;;;;;5072111;28;20143;-69
2023/07/14 04:47:24;;;;;;;;;;;24.70;31.00;;;;;;5071924;28;20213;-68
2023/07/14 04:49:51;;;;;;;;;;;24.80;29.60;;;;;;5071932;28;20099;-67
2023/07/14 04:52:18;;;;;;;;;;;24.70;30.00;;;;;;5070848;28;20094;-68
2023/07/14 04:54:45;;;;;;;;;;;24.60;30.30;;;;;;5071896;28;20139;-69
2023/07/14 04:57:12;;;;;;;;;;;24.70;30.20;;;;;;5070734;28;20133;-71
2023/07/14 04:59:38;;;;;;;;;;;24.70;29.50;;;;;;5071724;28;20085;-67
2023/07/14 05:02:05;;;;;;;;;;;24.80;30.60;;;;;;5072306;28;20150;-70
2023/07/14 05:04:32;;;;;;;;;;;24.70;29.60;;;;;;5072185;28;20161;-69
2023/07/14 05:06:59;;;;;;;;;;;24.60;30.60;;;;;;5072156;28;19972;-69
2023/07/14 05:09:26;;;;;;;;;;;24.30;29.30;;;;;;5071695;28;20106;-68
2023/07/14 05:11:52;;;;;;;;;;;24.20;30.00;;;;;;5071469;28;19974;-70
2023/07/14 05:14:19;;;;;;;;;;;24.10;30.30;;;;;;5071610;28;19975;-69
2023/07/14 05:16:46;;;;;;;;;;;24.00;30.20;;;;;;5072000;28;20478;-68
2023/07/14 05:19:13;;;;;;;;;;;24.00;31.30;;;;;;5072112;28;19977;-68
2023/07/14 05:21:39;;;;;;;;;;;24.00;31.50;;;;;;5071564;28;20506;-69
2023/07/14 05:24:07;;;;;;;;;;;24.00;31.80;;;;;;5071524;28;20096;-69
2023/07/14 05:26:34;;;;;;;;;;;23.70;32.30;;;;;;5070278;28;20110;-68
2023/07/14 05:29:02;;;;;;;;;;;23.70;32.60;;;;;;5071660;28;20126;-69
2023/07/14 05:31:29;;;;;;;;;;;23.80;33.20;;;;;;5072931;28;19964;-67
2023/07/14 05:33:56;;;;;;;;;;;23.50;33.20;;;;;;5076011;28;20572;-68
2023/07/14 05:36:22;;;;;;;;;;;23.20;35.20;;;;;;5075838;28;19964;-69
2023/07/14 05:38:49;;;;;;;;;;;23.00;36.30;;;;;;5076305;28;20084;-70
2023/07/14 05:41:16;;;;;;;;;;;22.90;37.50;;;;;;5075353;28;20134;-69
2023/07/14 05:43:43;;;;;;;;;;;22.70;38.60;;;;;;5075633;28;20076;-69
2023/07/14 05:46:09;;;;;;;;;;;22.40;40.50;;;;;;5076328;28;20232;-69
2023/07/14 05:48:36;;;;;;;;;;;22.30;41.40;;;;;;5075769;28;20112;-68
2023/07/14 05:51:03;;;;;;;;;;;22.00;43.10;;;;;;5075978;28;20647;-69
2023/07/14 05:53:30;;;;;;;;;;;21.90;45.00;;;;;;5075622;28;25073;-69
2023/07/14 05:55:57;;;;;;;;;;;21.80;47.10;;;;;;5076001;28;20500;-70
2023/07/14 05:58:24;;;;;;;;;;;21.80;48.60;;;;;;5075536;28;20173;-68
2023/07/14 06:00:53;;;;;;;;;;;21.70;49.50;;;;;;5075763;28;19963;-71
2023/07/14 06:03:20;;;;;;;;;;;21.60;49.10;;;;;;5075393;28;20136;-69
2023/07/14 06:05:47;;;;;;;;;;;21.60;51.90;;;;;;5075185;28;20143;-69
2023/07/14 06:08:14;;;;;;;;;;;21.40;53.30;;;;;;5074905;28;20110;-68
2023/07/14 06:10:41;;;;;;;;;;;21.20;54.80;;;;;;5073817;28;19968;-71
2023/07/14 06:13:08;;;;;;;;;;;21.10;57.30;;;;;;5075699;28;20084;-67
2023/07/14 06:15:34;;;;;;;;;;;21.00;59.60;;;;;;5075466;28;19989;-69
2023/07/14 06:18:01;;;;;;;;;;;20.90;60.60;;;;;;5075665;28;20080;-68
2023/07/14 06:20:28;;;;;;;;;;;20.90;61.10;;;;;;5075438;28;20566;-69
2023/07/14 06:22:55;;;;;;;;;;;20.90;62.10;;;;;;5075399;28;25094;-69
2023/07/14 06:25:22;;;;;;;;;;;20.80;61.90;;;;;;5075328;28;20096;-68
2023/07/14 06:27:49;;;;;;;;;;;20.70;66.90;;;;;;5074305;28;20160;-68
2023/07/14 06:30:15;;;;;;;;;;;20.70;66.90;;;;;;5075225;28;20081;-69
2023/07/14 06:32:42;;;;;;;;;;;20.70;68.30;;;;;;5074504;28;19988;-68
2023/07/14 06:35:10;;;;;;;;;;;20.70;68.60;;;;;;5074997;28;19949;-68
2023/07/14 06:37:37;;;;;;;;;;;20.80;68.60;;;;;;5075236;28;20074;-68
2023/07/14 06:40:04;;;;;;;;;;;20.80;70.00;;;;;;5074487;28;20078;-69
2023/07/14 06:42:31;;;;;;;;;;;20.70;71.20;;;;;;5073045;28;19973;-68
2023/07/14 06:44:58;;;;;;;;;;;20.50;73.10;;;;;;5074481;28;19974;-67
2023/07/14 06:47:25;;;;;;;;;;;20.50;75.20;;;;;;5073461;28;20000;-68
2023/07/14 06:49:52;;;;;;;;;;;20.40;77.30;;;;;;5074648;28;20089;-68
2023/07/14 06:52:19;;;;;;;;;;;20.30;78.60;;;;;;5074270;28;19966;-69
2023/07/14 06:54:46;;;;;;;;;;;20.20;80.30;;;;;;5074490;28;20071;-68
2023/07/14 06:57:13;;;;;;;;;;;20.00;84.70;;;;;;5074047;28;20079;-69
2023/07/14 06:59:41;;;;;;;;;;;19.80;87.30;;;;;;5074555;28;20047;-68
2023/07/14 07:02:10;;;;;;;;;;;19.70;90.50;;;;;;5074049;28;20365;-68
2023/07/14 07:04:37;;;;;;;;;;;19.50;91.80;;;;;;5074288;28;20077;-68
2023/07/14 07:07:04;;;;;;;;;;;19.20;95.50;;;;;;5074010;28;20281;-67
2023/07/14 07:09:31;;;;;;;;;;;19.10;99.90;;;;;;5074484;28;20084;-69
2023/07/14 07:11:58;;;;;;;;;;;18.80;99.90;;;;;;5073335;28;20071;-70
2023/07/14 07:14:24;;;;;;;;;;;18.60;99.90;;;;;;5073922;28;25069;-69
2023/07/14 07:16:51;;;;;;;;;;;18.50;99.90;;;;;;5073886;28;25105;-70
2023/07/14 07:19:18;;;;;;;;;;;18.30;99.90;;;;;;5073302;28;19963;-68
2023/07/14 07:21:45;;;;;;;;;;;18.10;99.90;;;;;;5073749;28;20049;-69
2023/07/14 07:24:12;;;;;;;;;;;17.90;99.90;;;;;;5073623;28;24126;-69
2023/07/14 07:26:39;;;;;;;;;;;17.80;99.90;;;;;;5073366;28;25077;-68
2023/07/14 07:29:06;;;;;;;;;;;17.60;99.90;;;;;;5073485;28;19986;-70
2023/07/14 07:31:32;;;;;;;;;;;17.70;99.90;;;;;;5073346;28;20020;-69
2023/07/14 07:33:59;;;;;;;;;;;17.90;99.90;;;;;;5073245;28;19962;-68
2023/07/14 07:36:27;;;;;;;;;;;18.00;99.90;;;;;;5073948;28;19911;-68
2023/07/14 07:38:54;;;;;;;;;;;18.20;99.90;;;;;;5073326;28;20051;-68
2023/07/14 07:41:22;;;;;;;;;;;18.20;99.90;;;;;;5073322;28;24098;-69
2023/07/14 07:43:49;;;;;;;;;;;18.10;99.90;;;;;;5073574;28;20016;-68
2023/07/14 07:46:16;;;;;;;;;;;18.00;99.90;;;;;;5072958;28;19950;-69
2023/07/14 07:48:44;;;;;;;;;;;17.90;99.90;;;;;;5073189;28;19924;-69
2023/07/14 07:51:12;;;;;;;;;;;17.80;99.90;;;;;;5071836;28;20418;-68
2023/07/14 07:53:39;;;;;;;;;;;17.80;99.90;;;;;;5075529;28;19908;-68
2023/07/14 07:56:06;;;;;;;;;;;17.90;99.90;;;;;;5073549;28;24076;-69
2023/07/14 07:58:33;;;;;;;;;;;17.80;99.90;;;;;;5072938;28;24054;-70
2023/07/14 08:01:04;;;;;;;;;;;17.80;99.90;;;;;;5073683;28;19999;-69
2023/07/14 08:03:31;;;;;;;;;;;17.60;99.90;;;;;;5073025;28;24097;-70
2023/07/14 08:05:59;;;;;;;;;;;17.60;99.90;;;;;;5072156;28;19952;-70
2023/07/14 08:08:26;;;;;;;;;;;17.50;99.90;;;;;;5071988;28;25131;-70
2023/07/14 08:10:53;;;;;;;;;;;17.50;99.90;;;;;;5071832;28;25113;-68
2023/07/14 08:13:20;;;;;;;;;;;17.50;99.90;;;;;;5075219;28;25104;-66
2023/07/14 08:15:47;;;;;;;;;;;17.40;99.90;;;;;;5074211;28;19904;-68
2023/07/14 08:18:13;;;;;;;;;;;17.30;99.90;;;;;;5072874;28;24078;-69
2023/07/14 08:20:40;;;;;;;;;;;17.30;99.90;;;;;;5073305;28;19905;-69
2023/07/14 08:23:11;;;;;;;;;;;17.20;99.90;;;;;;5072226;28;20131;-68
2023/07/14 08:25:37;;;;;;;;;;;17.10;99.90;;;;;;5073178;28;19987;-67
2023/07/14 08:28:04;;;;;;;;;;;17.00;99.90;;;;;;5071500;28;24069;-69
2023/07/14 08:30:31;;;;;;;;;;;17.00;99.90;;;;;;5071754;28;24137;-70
2023/07/14 08:32:58;;;;;;;;;;;17.00;99.90;;;;;;5072942;28;20252;-69
2023/07/14 08:35:25;;;;;;;;;;;17.10;99.90;;;;;;5072409;28;24073;-69
2023/07/14 08:37:53;;;;;;;;;;;17.10;99.90;;;;;;5072636;28;20009;-69
2023/07/14 08:40:24;;;;;;;;;;;17.10;99.90;;;;;;5073158;28;20274;-70
2023/07/14 08:42:57;;;;;;;;;;;17.00;99.90;;;;;;5072360;28;20085;-70
2023/07/14 08:45:33;;;;;;;;;;;17.00;99.90;;;;;;5072338;28;19950;-69
2023/07/14 08:48:04;;;;;;;;;;;16.90;99.90;;;;;;5072698;28;20406;-68
2023/07/14 08:50:31;;;;;;;;;;;16.80;99.90;;;;;;5071163;28;19904;-69
2023/07/14 08:53:03;;;;;;;;;;;16.70;99.90;;;;;;5072535;28;19931;-72
2023/07/14 08:55:32;;;;;;;;;;;16.60;99.90;;;;;;5073361;28;19911;-68
2023/07/14 08:58:04;;;;;;;;;;;16.50;99.90;;;;;;5072414;28;19916;-70
2023/07/14 09:00:36;;;;;;;;;;;16.40;99.90;;;;;;5072632;28;19983;-69
2023/07/14 09:03:06;;;;;;;;;;;16.40;99.90;;;;;;5072621;28;20247;-71
2023/07/14 09:05:35;;;;;;;;;;;16.30;99.90;;;;;;5073068;28;19966;-69
2023/07/14 09:08:03;;;;;;;;;;;16.20;99.90;;;;;;5075595;28;19913;-68
2023/07/14 09:10:41;;;;;;;;;;;16.20;99.90;;;;;;5075122;28;24065;-68
2023/07/14 09:13:26;;;;;;;;;;;16.00;99.90;;;;;;5076638;28;24082;-69
2023/07/14 09:15:53;;;;;;;;;;;15.90;99.90;;;;;;5076380;28;19950;-70
2023/07/14 09:18:42;;;;;;;;;;;15.80;99.90;;;;;;5076255;28;20043;-68
2023/07/14 09:21:25;;;;;;;;;;;15.70;99.90;;;;;;5076144;28;24097;-67
2023/07/14 09:24:00;;;;;;;;;;;15.60;99.90;;;;;;5075981;28;19917;-69
2023/07/14 09:26:32;;;;;;;;;;;15.40;99.90;;;;;;5076339;28;19904;-69
2023/07/14 09:29:00;;;;;;;;;;;15.30;99.90;;;;;;5075922;28;25055;-67
2023/07/14 09:31:37;;;;;;;;;;;15.10;99.90;;;;;;5076293;28;20341;-68
2023/07/14 09:34:09;;;;;;;;;;;15.00;99.90;;;;;;5076436;28;24055;-72
2023/07/14 09:36:39;;;;;;;7.97;3.73;;;14.90;99.90;;;;;;5076480;28;20138;-71
2023/07/14 09:39:20;;;;;;;6.27;2.80;;;14.80;99.90;;;;;;5076279;28;20651;-69
2023/07/14 09:41:52;;;;;;;6.00;3.80;;;14.70;99.90;;;;;;5076513;28;20203;-72
2023/07/14 09:44:22;;;;;;;6.00;3.00;;;14.70;99.90;;;;;;5076244;28;20180;-70
2023/07/14 09:46:50;;;;;;;6.00;3.17;;;14.70;99.90;;;;;;5076247;28;20183;-69
2023/07/14 09:49:34;;;;;;;3.77;2.30;;;14.60;99.90;;;;;;5076104;28;20219;-69
2023/07/14 09:52:03;;;;;;;4.97;2.30;;;14.60;99.90;;;;;;5076162;28;20176;-70
2023/07/14 09:54:34;;;;;;;4.30;2.40;;;14.60;99.90;;;;;;5074714;28;20636;-71
2023/07/14 09:57:03;;;;;;;4.53;2.83;;;14.60;99.90;;;;;;5075979;28;20184;-71
2023/07/14 09:59:31;;;;;;;3.77;2.63;;;14.60;99.90;;;;;;5075998;28;20531;-69
2023/07/14 10:02:00;;;;;;;5.90;2.73;;;14.60;99.90;;;;;;5075915;28;20149;-69
2023/07/14 10:04:30;;;;;;;4.40;2.87;;;14.60;99.90;;;;;;5076171;28;20178;-68
2023/07/14 10:07:23;;;;;;;6.97;2.53;;;14.70;99.90;;;;;;5075916;28;20183;-67
2023/07/14 10:09:59;;;;;;;7.50;2.90;;;14.70;99.90;;;;;;5076391;28;20195;-69
2023/07/14 10:12:36;;;;;;;6.00;2.50;;;14.60;99.90;;;;;;5076076;28;20522;-70
2023/07/14 10:15:38;;;;;;;5.57;3.03;;;14.50;99.90;;;;;;5075840;28;20238;-68
2023/07/14 10:18:16;;;;;;;5.00;3.50;;;14.40;99.90;;;;;;5074142;28;20194;-69
2023/07/14 10:21:00;;;;;;;8.67;3.43;;;14.20;99.90;;;;;;5075680;28;20664;-68
2023/07/14 10:23:29;;;;;;;5.93;3.23;;;14.20;99.90;;;;;;5075204;28;20217;-68
2023/07/14 10:25:56;;;;;;;7.13;3.40;;;14.10;99.90;;;;;;5075350;28;20171;-69
2023/07/14 10:28:29;;;;;;;6.53;3.13;;;13.90;99.90;;;;;;5075281;28;20219;-67
2023/07/14 10:31:24;;;;;;;4.80;3.10;;;13.80;99.90;;;;;;5074705;28;20182;-70
2023/07/14 10:33:55;;;;;;;6.60;3.47;;;13.70;99.90;;;;;;5075372;28;20187;-68
2023/07/14 10:36:28;;;;;;;4.53;3.03;;;13.50;99.90;;;;;;5075536;28;20275;-69
2023/07/14 10:39:01;;;;;;;4.47;3.00;;;13.50;99.90;;;;;;5075450;28;20282;-68
2023/07/14 10:41:30;;;;;;;4.63;3.30;;;13.40;99.90;;;;;;5075282;28;20232;-69
2023/07/14 10:44:16;;;;;;;7.07;3.13;;;13.40;99.90;;;;;;5075276;28;20251;-69
2023/07/14 10:46:49;;;;;;;5.47;3.30;;;13.50;99.90;;;;;;5075384;28;20170;-69
2023/07/14 10:49:20;;;;;;;9.33;3.77;;;13.60;99.90;;;;;;5073850;28;20229;-69
2023/07/14 10:51:50;;;;;;;10.77;3.80;;;13.50;99.90;;;;;;5075339;28;20171;-70
2023/07/14 10:54:45;;;;;;;4.83;3.77;;;13.50;99.90;;;;;;5073786;28;20283;-69
2023/07/14 10:57:28;;;;;;;9.17;3.90;;;13.30;99.90;;;;;;5075395;28;20320;-70
2023/07/14 11:00:14;;;;;;;7.20;3.97;;;13.30;99.90;;;;;;5075146;28;20307;-69
2023/07/14 11:03:05;;;;;;;9.37;3.83;;;13.10;99.90;;;;;;5074667;28;20229;-72
2023/07/14 11:05:33;;;;;;;7.80;4.67;;;13.10;99.90;;;;;;5073645;28;20210;-68
2023/07/14 11:08:01;;;;;;;11.27;4.23;;;13.20;99.90;;;;;;5074552;28;20571;-69
2023/07/14 11:10:53;;;;;;;13.07;5.97;;;13.40;99.90;;;;;;5074769;28;20186;-71
2023/07/14 11:13:48;;;;;;;10.83;4.97;;;13.30;99.90;;;;;;5074737;28;20183;-68
2023/07/14 11:16:27;;;;;;;11.57;4.97;;;13.10;99.90;;;;;;5074467;28;20203;-70
2023/07/14 11:19:09;;;;;;;10.17;5.93;;;13.20;99.90;;;;;;5074463;28;20672;-69
2023/07/14 11:22:00;;;;;;;10.40;5.30;;;13.20;99.90;;;;;;5074295;28;20226;-69
2023/07/14 11:24:34;;;;;;;14.40;6.33;;;13.20;99.90;;;;;;5073130;28;20256;-70
2023/07/14 11:27:36;;;;;;;10.40;6.10;;;13.00;99.90;;;;;;5074247;28;20176;-69
2023/07/14 11:30:13;;;;;;;11.00;6.30;;;12.90;99.90;;;;;;5073886;28;20543;-70
2023/07/14 11:33:00;;;;;;;12.97;6.43;;;12.80;99.90;;;;;;5073092;28;20187;-70
2023/07/14 11:35:46;;;;;;;12.77;5.70;;;12.70;99.90;;;;;;5074501;28;20536;-69
2023/07/14 11:38:39;;;;;;;10.37;6.33;;;12.60;99.90;;;;;;5074270;28;20175;-68
2023/07/14 11:41:07;;;;;;;8.80;4.57;;;12.50;99.90;;;;;;5029636;28;20607;-68
2023/07/14 11:43:35;;;;;;;8.30;5.00;;;12.50;99.90;;;;;;5073972;28;20222;-68
2023/07/14 11:46:08;;;;;;;7.47;5.37;;;12.60;99.90;;;;;;5073916;28;20185;-68
2023/07/14 11:48:38;;;;;;;6.40;4.50;;;12.60;99.90;;;;;;5074047;28;20228;-68
2023/07/14 11:51:13;;;;;;;14.20;5.33;;;12.40;99.90;;;;;;5073945;28;20265;-69
2023/07/14 11:54:02;;;;;;;8.03;5.00;;;12.40;99.90;;;;;;5072431;28;20624;-69
2023/07/14 11:56:39;;;;;;;8.70;5.40;;;12.50;99.90;;;;;;5072367;28;20213;-68
2023/07/14 11:59:23;;;;;;;9.87;5.17;;;12.40;99.90;;;;;;5073913;28;20214;-70
2023/07/14 12:01:53;;;;;;;8.00;5.30;;;12.30;99.90;;;;;;5072574;28;20211;-69
2023/07/14 12:04:23;;;;;;;10.57;5.20;;;12.10;99.90;;;;;;5073804;28;20179;-69
2023/07/14 12:07:10;;;;;;;7.80;4.97;;;12.10;99.90;;;;;;5073780;28;20177;-69
2023/07/14 12:09:58;;;;;;;8.63;5.40;;;12.00;99.90;;;;;;5073687;28;20238;-71
2023/07/14 12:12:26;;;;;;;9.77;5.33;;;11.90;99.90;;;;;;5073489;28;20265;-69
2023/07/14 12:14:54;;;;;;;9.50;5.80;;;11.80;99.90;;;;;;5073520;28;20186;-69
2023/07/14 12:17:45;;;;;;;13.67;6.57;;;11.70;99.90;;;;;;5073429;28;20198;-68
2023/07/14 12:20:12;;;;;;;8.93;5.10;;;11.70;99.90;;;;;;5073631;28;20183;-69
2023/07/14 12:22:52;;;;;;;8.30;5.13;;;11.60;99.90;;;;;;5073079;28;20220;-68
2023/07/14 12:25:23;;;;;;;11.47;5.53;;;11.60;99.90;;;;;;5073409;28;20590;-70
2023/07/14 12:27:59;;;;;;;8.47;5.20;;;11.60;99.90;;;;;;5073276;28;20221;-68
2023/07/14 12:30:31;;;;;;;11.60;5.70;;;11.60;99.90;;;;;;5073237;28;20666;-67
2023/07/14 12:33:05;;;;;;;10.60;4.90;;;11.60;99.90;;;;;;5073214;28;20182;-68
2023/07/14 12:35:36;;;;;;;13.30;5.87;;;11.60;99.90;;;;;;5073332;28;20180;-68
2023/07/14 12:38:19;;;;;;;8.27;4.97;;;11.50;99.90;;;;;;5073242;28;20228;-68
2023/07/14 12:40:49;;;;;;;9.90;5.27;;;11.40;99.90;;;;;;5073234;28;20219;-67
2023/07/14 12:43:33;;;;;;;10.03;5.10;;;11.40;99.90;;;;;;5072649;28;20520;-68
2023/07/14 12:46:10;;;;;;;13.77;5.67;;;11.40;99.90;;;;;;5073052;28;20183;-68
2023/07/14 12:48:39;;;;;;;11.87;6.20;;;11.30;99.90;;;;;;5073037;28;20215;-68
2023/07/14 12:51:21;;;;;;;13.50;6.33;;;11.30;99.90;;;;;;5073073;28;20175;-69
2023/07/14 12:54:16;;;;;;;16.17;6.30;;;11.20;99.90;;;;;;5072921;28;20295;-68
2023/07/14 12:56:44;;;;;;;13.40;6.33;;;11.10;99.90;;;;;;5072980;28;20174;-69
2023/07/14 12:59:17;;;;;;;11.43;5.43;;;11.10;99.90;;;;;;5073001;28;20652;-68
2023/07/14 13:01:45;;;;;;;;;;;11.20;99.90;;;;;;5073158;28;20181;-69
2023/07/14 13:04:12;;;;;;;;;;;11.20;99.90;;;;;;5072789;28;24095;-68
2023/07/14 13:06:40;;;;;;;;;;;11.20;99.90;;;;;;5072533;28;19908;-68
2023/07/14 13:09:10;;;;;;;;;;;11.10;99.90;;;;;;5073683;28;24070;-69
2023/07/14 13:11:40;;;;;;;;;;;11.10;99.90;;;;;;5072716;28;25121;-68
2023/07/14 13:14:12;;;;;;;;;;;11.00;99.90;;;;;;5071313;28;19930;-68
2023/07/14 13:16:39;;;;;;;;;;;10.90;99.90;;;;;;5073028;28;20412;-69
2023/07/14 13:19:19;;;;;;;;;;;10.90;99.90;;;;;;5072839;28;20335;-67
2023/07/14 13:21:51;;;;;;;;;;;10.90;99.90;;;;;;5072685;28;24086;-67
2023/07/14 13:24:21;;;;;;;;;;;10.80;99.90;;;;;;5071118;28;25126;-69
2023/07/14 13:26:50;;;;;;;;;;;10.80;99.90;;;;;;5072530;28;24089;-68
2023/07/14 13:29:27;;;;;;;;;;;10.80;99.90;;;;;;5071246;28;19999;-68
2023/07/14 13:31:56;;;;;;;;;;;10.80;99.90;;;;;;5072757;28;20267;-69
2023/07/14 13:34:34;;;;;;;;;;;10.70;99.90;;;;;;5072704;28;19904;-69
2023/07/14 13:37:02;;;;;;;;;;;10.70;99.90;;;;;;5072479;28;19950;-70
2023/07/14 13:39:31;;;;;;;;;;;10.60;99.90;;;;;;5072456;28;20370;-70
2023/07/14 13:42:02;;;;;;;11.43;6.23;;;10.60;99.90;;;;;;5072415;28;20167;-69
2023/07/14 13:44:30;;;;;;;;;;;10.50;99.90;;;;;;5072475;28;20199;-68
2023/07/14 13:47:00;;;;;;;;;;;10.50;99.90;;;;;;5071406;28;20255;-69
2023/07/14 13:49:27;;;;;;;;;;;10.50;99.90;;;;;;5071292;28;19962;-69
2023/07/14 13:51:53;;;;;;;;;;;10.40;99.90;;;;;;5072409;28;24132;-69
2023/07/14 13:54:21;;;;;;;;;;;10.40;99.90;;;;;;5075757;28;19905;-69
2023/07/14 13:56:48;;;;;;;;;;;10.30;99.90;;;;;;5075754;28;20589;-68
2023/07/14 13:59:16;;;;;;;;;;;10.30;99.90;;;;;;5074932;28;19950;-69
2023/07/14 14:01:44;;;;;;;;;;;10.30;99.90;;;;;;5075020;28;20266;-68
2023/07/14 14:04:13;;;;;;;;;;;10.20;99.90;;;;;;5075830;28;19950;-70
2023/07/14 14:06:41;;;;;;;;;;;10.20;99.90;;;;;;5076003;28;24082;-68
2023/07/14 14:09:19;;;;;;;;;;;10.10;99.90;;;;;;5075567;28;19938;-72
2023/07/14 14:11:50;;;;;;;;;;;10.30;99.90;;;;;;5075913;28;19908;-69
2023/07/14 14:14:16;;;;;;;;;;;10.30;99.90;;;;;;5075788;28;19904;-72
2023/07/14 14:16:44;;;;;;;;;;;10.40;99.90;;;;;;5075566;28;19904;-69
2023/07/14 14:19:15;;;;;;;;;;;10.30;99.90;;;;;;5075871;28;19904;-72